Aihui, Heilongjiang

4:39 PM CST on December 21, 2014 (GMT +0800)
Ignatyevo | Change Station
CLOSE
Current Station
Airport
Location: Blagovescensk,
Elevation: 636 ft
Nearby Weather Stations

Elev 636 ft 50.43 °N, 127.41 °E | Updated 9 minutes ago

Clear
Clear
-18 °F
Feels Like -18 °F
N
2
Wind Variable Wind from SW

Today
High -- | Low -- °F
--% Chance of Precip.
Yesterday
High -- | Low -- °F
Precip. -- in
7:27 AM 3:29 PM
Waning Crescent, 1% visible
Pressure 29.80 in
Visibility -9999.0 miles
Clouds
Dew Point -24 °F
Humidity 76%
Rainfall 0.00 in
Snow Depth Not available.
UV Not available.
Pollen Not available.
Air Quality Not available.
Flu Activity Not available.
METAR UHBB 210830Z 23001MPS CAVOK M28/M31 Q1009 NOSIG RMK QFE739/0986 36410250

More Conditions Fewer Conditions

Pressure 29.80 in
Visibility -9999.0 miles
Clouds
Dew Point -24 °F
Humidity 76%
Rainfall 0.00 in
Snow Depth Not available.
UV Not available.
Pollen Not available.
Air Quality Not available.
Flu Activity Not available.
METAR UHBB 210830Z 23001MPS CAVOK M28/M31 Q1009 NOSIG RMK QFE739/0986 36410250

More Conditions Fewer Conditions

10-Day Weather Forecast

Almanac

Astronomy

Dec. 21, 2014 Rise Set
Actual Time
Civil Twilight
Nautical Twilight
Astronomical Twilight
Moon
Length of Visible Light
Length of Day
Tomorrow will be .
, % of the Moon is Illuminated

Today's Extremes

Country Highs Country Lows

Community

WunderPhotos

Upload Photos

1,779,362 photos uploaded!

WunderBlogs® & News

Nearby

Air Quality

  Air Quality AQ Index Pollutant
Not available.

Snow Depth

Station Depth Elevation

Earthquake Activity

City Distance Mag. Time & Date
Minimum magnitude displayed is 2.5.

Coastal Water Temperatures

Place Temperature

Nearby Weather Stations